»·PEaware :: CGHFO KPSP-KTOA

CGHFO :: KPSP-KTOA

FLIGHT INFORMATION

Flight Status: Arrived
Operator: Unknown
More flights by this operator :: More flights under this callsign
Pilot: Basie S. (26327)
Aircraft: BEECH AIRCRAFT DEBONAIR BONANZA
(BE33)
More flights by this aircraft type
Origin: KPSP Palm Springs Intl
United States
Destination: KTOA Zamperini
United States
More flights between these airports :: More routes between these airports
Route: +CATH1 PSP V388 PDZ PDZ270/016 V394 SLI
File this flight plan on PilotEdge
Remarks: TEC ROUTE PSPP8A
Altitude:
(Current/Filed)
1,000ft
Speed:
(Current/Filed)
155kts
Departed: 22-Nov-19 08:50 PM
Arrived: 22-Nov-19 09:43 PM
Distance/Time
Traveled:
92nm/0:52
Distance/Time
To Go:
Arrived

Flight Plot

Page will automatically refresh every two minutes.


Map Options




Map Legend


Flown Route
Filed Route
Departure Airport
Arrival Airport
Navaid (VOR, NDB)
Fix

Horizontal Profiles

Position Reports

Time Latitude Longitude Heading Altitude Ground
Speed
22-Nov-19 20:31 33.829022 -116.510930 269 481ft 0kts
22-Nov-19 20:32 33.829022 -116.510930 269 481ft 0kts
22-Nov-19 20:33 33.829022 -116.510930 269 481ft 0kts
22-Nov-19 20:34 33.829022 -116.510930 269 481ft 0kts
22-Nov-19 20:35 33.829022 -116.510930 269 481ft 0kts
22-Nov-19 20:36 33.829022 -116.510930 269 481ft 0kts
22-Nov-19 20:37 33.829022 -116.510930 269 481ft 0kts
22-Nov-19 20:38 33.829022 -116.510930 269 481ft 0kts
22-Nov-19 20:39 33.829022 -116.510930 269 481ft 0kts
22-Nov-19 20:40 33.828933 -116.510887 59 481ft 0kts
22-Nov-19 20:41 33.828892 -116.509920 77 481ft 6kts
22-Nov-19 20:42 33.828665 -116.509397 92 481ft 0kts
22-Nov-19 20:43 33.828665 -116.509397 92 481ft 0kts
22-Nov-19 20:44 33.826654 -116.507006 143 480ft 18kts
22-Nov-19 20:45 33.823300 -116.503814 116 481ft 7kts
22-Nov-19 20:46 33.823218 -116.503388 89 481ft 0kts
22-Nov-19 20:47 33.823218 -116.503388 89 481ft 0kts
22-Nov-19 20:48 33.823229 -116.502719 88 481ft 9kts
22-Nov-19 20:49 33.829470 -116.507363 321 481ft 97kts
22-Nov-19 20:50 33.852187 -116.529718 320 1425ft 118kts
22-Nov-19 20:51 33.879089 -116.559710 319 2160ft 141kts
22-Nov-19 20:52 33.911771 -116.576750 43 2838ft 139kts
22-Nov-19 20:53 33.904908 -116.534883 110 3536ft 137kts
22-Nov-19 20:54 33.890775 -116.492484 109 4226ft 135kts
22-Nov-19 20:55 33.877133 -116.450710 109 4941ft 132kts
22-Nov-19 20:56 33.863359 -116.410814 89 5716ft 126kts
22-Nov-19 20:57 33.886655 -116.410862 287 6540ft 122kts
22-Nov-19 20:59 33.893915 -116.449566 282 7317ft 119kts
22-Nov-19 21:00 33.900860 -116.487324 283 8099ft 113kts
22-Nov-19 21:01 33.907456 -116.522246 283 8862ft 104kts
22-Nov-19 21:02 33.914198 -116.558101 283 9388ft 115kts
22-Nov-19 21:03 33.921530 -116.596867 283 9895ft 121kts
22-Nov-19 21:04 33.929825 -116.640897 283 9987ft 147kts
22-Nov-19 21:05 33.939266 -116.691081 283 9979ft 158kts
22-Nov-19 21:06 33.948254 -116.743437 272 9973ft 160kts
22-Nov-19 21:07 33.946501 -116.797144 267 9968ft 161kts
22-Nov-19 21:08 33.944541 -116.850020 267 9984ft 160kts
22-Nov-19 21:09 33.942612 -116.903035 268 9996ft 161kts
22-Nov-19 21:10 33.940654 -116.956658 268 9992ft 161kts
22-Nov-19 21:11 33.938691 -117.009498 267 9989ft 161kts
22-Nov-19 21:12 33.936700 -117.062355 267 9986ft 162kts
22-Nov-19 21:13 33.934630 -117.115831 266 9982ft 163kts
22-Nov-19 21:14 33.932342 -117.172141 266 9643ft 179kts
22-Nov-19 21:15 33.930060 -117.233219 266 8806ft 185kts
22-Nov-19 21:16 33.927568 -117.295024 266 7978ft 182kts
22-Nov-19 21:17 33.925181 -117.354252 266 7467ft 174kts
22-Nov-19 21:18 33.922853 -117.411958 266 6983ft 171kts
22-Nov-19 21:19 33.920606 -117.468126 266 6530ft 165kts
22-Nov-19 21:19 33.918682 -117.514092 266 6117ft 164kts
22-Nov-19 21:21 33.928435 -117.576648 283 5537ft 163kts
22-Nov-19 21:22 33.940167 -117.630021 284 5047ft 167kts
22-Nov-19 21:22 33.950349 -117.675718 284 4638ft 170kts
22-Nov-19 21:24 33.964560 -117.739500 285 4050ft 166kts
22-Nov-19 21:24 33.974140 -117.782424 285 3978ft 151kts
22-Nov-19 21:25 33.978518 -117.829890 238 3983ft 144kts
22-Nov-19 21:27 33.937855 -117.855155 201 3976ft 143kts
22-Nov-19 21:27 33.906966 -117.869927 201 3972ft 143kts
22-Nov-19 21:28 33.869989 -117.887770 201 3974ft 143kts
22-Nov-19 21:29 33.846163 -117.924537 244 3976ft 143kts
22-Nov-19 21:30 33.826957 -117.966944 239 3977ft 144kts
22-Nov-19 21:32 33.802874 -118.015299 239 3978ft 144kts
22-Nov-19 21:32 33.785572 -118.049820 238 3879ft 151kts
22-Nov-19 21:33 33.751508 -118.082962 217 3401ft 162kts
22-Nov-19 21:34 33.715072 -118.116073 217 2892ft 165kts
22-Nov-19 21:35 33.686864 -118.155560 273 2312ft 164kts
22-Nov-19 21:36 33.709971 -118.198638 306 1975ft 142kts
22-Nov-19 21:37 33.733639 -118.233407 310 1950ft 120kts
22-Nov-19 21:38 33.750949 -118.257690 294 1884ft 92kts
22-Nov-19 21:39 33.766969 -118.283878 305 1324ft 91kts
22-Nov-19 21:40 33.781867 -118.306300 305 797ft 83kts
22-Nov-19 21:41 33.796287 -118.327977 306 299ft 83kts
22-Nov-19 21:42 33.805290 -118.341817 290 107ft 18kts
22-Nov-19 21:43 33.805779 -118.345157 223 107ft 10kts
22-Nov-19 21:44 33.804264 -118.344966 219 107ft 2kts

Navigation Log

Ident Type
Flight plan parsing failed, navigation log unavailable